Aeroporto :
LOGIN :

Iscrizione | Disclaimer

   EN    FR    IT 

 










Sommario :    VFR   VFR Marginale   IFR   IFR Intensivo   IFR Molto Intensivo
Visibilità : 
Base nubi : 
>= 8 km
>= 3000ft
5 / 8 km
1000 / 3000 ft
1500m / 5 km
500 / 1000 ft
800 / 1500m
200 / 500 ft
< 800m
< 200 ft
Simboli :   Temporali  Nebbia  Neve Forte  Precipitazioni Forti  Vento > 20 kt
SIGMETs :   Varie  Temporali  Ghiacco  Turbolenza  Onda orograficha  Ceneri Vulcaniche






- Altitudine del aeroporto : 465 ft


ENFB - Statfjord B Platform

ULTIMO METAR :
  • 141320Z AUTO 01005KT 9999NDV BKN094/// 06/M02 Q1008 W///S4

METARs OBSOLETI :
  • 141250Z AUTO 36006KT 9999NDV FEW095/// 06/M02 Q1007 W///S3
  • 141220Z AUTO 36006KT 9999NDV SCT097/// 06/M03 Q1007 W///S4
  • 141150Z AUTO 36006KT 9999NDV FEW035/// 06/M03 Q1007 W///S4
  • 141120Z AUTO 35007KT 9999NDV FEW035/// 06/M03 Q1007 W///S4
  • 141050Z AUTO 01007KT 9999NDV BKN035/// 06/M03 Q1007 W///S4

TAF N/A



MetMap, La meteo Aeronautica in un colpo d'occhio ! - Copyright ORBIFLY Dicembre 2007 - Disclaimer

ORBIFLY MET'MAP TEAM :

Programmazione e sviluppo : Alexandra Zaïnal
Concezione e sviluppo : Baudouin d'Aumeries
Co-Programmazione e sviluppo : Marc-Olivier Méhu
Supporto tecnico e logistico : Manuel Goepfert
Aiuto per la traduzione : Arnaldo La Scala

Contatto : metmap@orbifly.com




FONTI E CREDITI :

   NOAA